Adams Basin, NY

8:19 AM EST on December 15, 2019 (GMT -0500)
Adams Basin, New York | | Change Station

Elev 513 ft 43.20 °N, 77.85 °W | Updated 8 seconds ago

Overcast
Overcast
38.1 °F
Feels Like 38 °F
N
0
Wind Variable Wind from NNE
Gusts 0.0 mph

Today
High -- | Low -- °F
--% Chance of Precip.
Yesterday
High -- | Low -- °F
Precip. -- in
Pressure 29.68 in
Visibility 10.0 miles
Clouds Mostly Cloudy 1700 ft
Overcast 4500 ft
Windchill 38 °F
Dew Point 33 °F
Humidity 83%
Rainfall 0.00 in
Snow Depth Not available.
7:36 AM 4:36 PM
Waning Gibbous, 87% visible
METAR KROC 151154Z 28015G22KT 10SM BKN017 OVC045 02/M02 A2965 RMK AO2 RAE42SNE42 SLP049 4/001 P0000 60000 70075 T00171017 10022 20011 53035
Pressure 29.68 in
Visibility 10.0 miles
Clouds Mostly Cloudy 1700 ft
Overcast 4500 ft
Windchill 38 °F
Dew Point 33 °F
Humidity 83%
Rainfall 0.00 in
Snow Depth Not available.
7:36 AM 4:36 PM
Waning Gibbous, 87% visible
METAR KROC 151154Z 28015G22KT 10SM BKN017 OVC045 02/M02 A2965 RMK AO2 RAE42SNE42 SLP049 4/001 P0000 60000 70075 T00171017 10022 20011 53035

Get Severe Weather Alerts

Thanks for signing up!

Be on the lookout for a verification email in your inbox.

You'll start receiving the daily forecast at 6 AM.

×

10-Day Weather Forecast

Almanac

Astronomy

Dec. 15, 2019 Rise Set
Actual Time
Civil Twilight
Nautical Twilight
Astronomical Twilight
Moon
Length of Visible Light
Length of Day
Tomorrow will be .
, % of the Moon is Illuminated

Today's Extremes

State Highs State Lows

Community

WunderPhotos

Category 6

Welcome to Category 6. This is the collective home for Weather Underground's featured writeups by Dr. Jeff Masters (right), Bob Henson (left), Chris Burt, and other regular contributors.

Nearby

Air Quality

  Air Quality AQ Index Pollutant
Not available.

Snow Depth

Station Depth Elevation

Earthquake Activity

City Distance Mag. Time & Date
Minimum magnitude displayed is 2.5.

Coastal Water Temperatures

Place Temperature

Stations

Nearby Weather Stations

Station Location Temp. Windchill Dew Point Humidity Wind Precip. Elev Updated Type
                   

Watches & Warnings

There are currently no watches in effect.